sensor_id;sensor_type;location;lat;lon;timestamp;P1;durP1;ratioP1;P2;durP2;ratioP2
39958;SDS011;25639;53.634;9.880;2023-05-16T00:00:52;7.85;;;5.18;;
39958;SDS011;25639;53.634;9.880;2023-05-16T00:03:18;5.88;;;3.97;;
39958;SDS011;25639;53.634;9.880;2023-05-16T00:05:44;8.13;;;3.72;;
39958;SDS011;25639;53.634;9.880;2023-05-16T00:08:10;6.00;;;3.75;;
39958;SDS011;25639;53.634;9.880;2023-05-16T00:10:35;6.88;;;3.33;;
39958;SDS011;25639;53.634;9.880;2023-05-16T00:13:01;5.03;;;3.03;;
39958;SDS011;25639;53.634;9.880;2023-05-16T00:15:26;6.10;;;3.10;;
39958;SDS011;25639;53.634;9.880;2023-05-16T00:17:54;6.35;;;3.65;;
39958;SDS011;25639;53.634;9.880;2023-05-16T00:20:22;5.90;;;2.90;;
39958;SDS011;25639;53.634;9.880;2023-05-16T00:22:48;6.68;;;3.05;;
39958;SDS011;25639;53.634;9.880;2023-05-16T00:25:14;9.60;;;3.60;;
39958;SDS011;25639;53.634;9.880;2023-05-16T00:27:40;10.23;;;3.58;;
39958;SDS011;25639;53.634;9.880;2023-05-16T00:30:05;6.10;;;3.20;;
39958;SDS011;25639;53.634;9.880;2023-05-16T00:32:31;5.60;;;3.35;;
39958;SDS011;25639;53.634;9.880;2023-05-16T00:34:56;6.13;;;3.05;;
39958;SDS011;25639;53.634;9.880;2023-05-16T00:37:22;6.63;;;2.80;;
39958;SDS011;25639;53.634;9.880;2023-05-16T00:39:47;5.03;;;2.85;;
39958;SDS011;25639;53.634;9.880;2023-05-16T00:42:13;8.43;;;3.35;;
39958;SDS011;25639;53.634;9.880;2023-05-16T00:44:38;6.13;;;2.55;;
39958;SDS011;25639;53.634;9.880;2023-05-16T00:47:03;7.45;;;3.25;;
39958;SDS011;25639;53.634;9.880;2023-05-16T00:49:29;5.55;;;2.70;;
39958;SDS011;25639;53.634;9.880;2023-05-16T00:51:54;7.57;;;2.90;;
39958;SDS011;25639;53.634;9.880;2023-05-16T00:54:21;8.25;;;2.78;;
39958;SDS011;25639;53.634;9.880;2023-05-16T00:56:47;4.63;;;2.50;;
39958;SDS011;25639;53.634;9.880;2023-05-16T00:59:13;8.38;;;2.80;;
39958;SDS011;25639;53.634;9.880;2023-05-16T01:01:39;6.45;;;2.58;;
39958;SDS011;25639;53.634;9.880;2023-05-16T01:04:05;7.75;;;3.13;;
39958;SDS011;25639;53.634;9.880;2023-05-16T01:06:31;5.32;;;2.60;;
39958;SDS011;25639;53.634;9.880;2023-05-16T01:08:58;10.10;;;3.40;;
39958;SDS011;25639;53.634;9.880;2023-05-16T01:11:35;4.43;;;2.65;;
39958;SDS011;25639;53.634;9.880;2023-05-16T01:22:45;9.38;;;3.03;;
39958;SDS011;25639;53.634;9.880;2023-05-16T01:28:20;8.43;;;3.33;;
39958;SDS011;25639;53.634;9.880;2023-05-16T01:30:46;9.13;;;3.40;;
39958;SDS011;25639;53.634;9.880;2023-05-16T01:33:12;11.93;;;3.53;;
39958;SDS011;25639;53.634;9.880;2023-05-16T01:35:39;8.20;;;3.30;;
39958;SDS011;25639;53.634;9.880;2023-05-16T01:38:19;13.07;;;3.08;;
39958;SDS011;25639;53.634;9.880;2023-05-16T01:43:34;12.98;;;3.13;;
39958;SDS011;25639;53.634;9.880;2023-05-16T01:46:11;11.25;;;3.10;;
39958;SDS011;25639;53.634;9.880;2023-05-16T01:48:50;10.93;;;3.28;;
39958;SDS011;25639;53.634;9.880;2023-05-16T01:51:21;11.00;;;3.08;;
39958;SDS011;25639;53.634;9.880;2023-05-16T01:53:52;12.73;;;3.10;;
39958;SDS011;25639;53.634;9.880;2023-05-16T01:56:22;13.63;;;2.45;;
39958;SDS011;25639;53.634;9.880;2023-05-16T01:58:49;14.45;;;3.13;;
39958;SDS011;25639;53.634;9.880;2023-05-16T02:01:18;13.35;;;2.10;;
39958;SDS011;25639;53.634;9.880;2023-05-16T02:03:43;16.27;;;2.83;;
39958;SDS011;25639;53.634;9.880;2023-05-16T02:06:09;9.50;;;2.40;;
39958;SDS011;25639;53.634;9.880;2023-05-16T02:08:34;10.05;;;2.30;;
39958;SDS011;25639;53.634;9.880;2023-05-16T02:10:59;12.38;;;2.47;;
39958;SDS011;25639;53.634;9.880;2023-05-16T02:13:25;15.63;;;2.40;;
39958;SDS011;25639;53.634;9.880;2023-05-16T02:15:50;9.88;;;1.85;;
39958;SDS011;25639;53.634;9.880;2023-05-16T02:18:16;13.23;;;2.00;;
39958;SDS011;25639;53.634;9.880;2023-05-16T02:20:42;13.38;;;2.20;;
39958;SDS011;25639;53.634;9.880;2023-05-16T02:23:11;13.25;;;2.45;;
39958;SDS011;25639;53.634;9.880;2023-05-16T02:25:38;13.88;;;2.05;;
39958;SDS011;25639;53.634;9.880;2023-05-16T02:28:08;13.00;;;2.70;;
39958;SDS011;25639;53.634;9.880;2023-05-16T02:30:35;17.88;;;2.75;;
39958;SDS011;25639;53.634;9.880;2023-05-16T02:33:02;12.38;;;2.15;;
39958;SDS011;25639;53.634;9.880;2023-05-16T02:35:28;14.68;;;2.40;;
39958;SDS011;25639;53.634;9.880;2023-05-16T02:37:55;10.32;;;2.13;;
39958;SDS011;25639;53.634;9.880;2023-05-16T02:40:21;10.07;;;1.83;;
39958;SDS011;25639;53.634;9.880;2023-05-16T02:42:46;13.55;;;2.50;;
39958;SDS011;25639;53.634;9.880;2023-05-16T02:45:11;20.58;;;2.80;;
39958;SDS011;25639;53.634;9.880;2023-05-16T02:47:36;18.42;;;3.35;;
39958;SDS011;25639;53.634;9.880;2023-05-16T02:50:02;16.05;;;2.53;;
39958;SDS011;25639;53.634;9.880;2023-05-16T02:52:27;14.20;;;2.60;;
39958;SDS011;25639;53.634;9.880;2023-05-16T02:54:53;14.00;;;2.92;;
39958;SDS011;25639;53.634;9.880;2023-05-16T02:57:18;15.98;;;3.13;;
39958;SDS011;25639;53.634;9.880;2023-05-16T02:59:44;14.88;;;2.90;;
39958;SDS011;25639;53.634;9.880;2023-05-16T03:02:09;13.63;;;2.40;;
39958;SDS011;25639;53.634;9.880;2023-05-16T03:04:35;12.82;;;2.75;;
39958;SDS011;25639;53.634;9.880;2023-05-16T03:07:01;24.85;;;2.40;;
39958;SDS011;25639;53.634;9.880;2023-05-16T03:09:26;15.35;;;2.67;;
39958;SDS011;25639;53.634;9.880;2023-05-16T03:11:53;12.90;;;2.30;;
39958;SDS011;25639;53.634;9.880;2023-05-16T03:14:20;15.77;;;2.75;;
39958;SDS011;25639;53.634;9.880;2023-05-16T03:16:45;21.50;;;2.63;;
39958;SDS011;25639;53.634;9.880;2023-05-16T03:19:12;20.35;;;2.38;;
39958;SDS011;25639;53.634;9.880;2023-05-16T03:21:42;16.02;;;2.58;;
39958;SDS011;25639;53.634;9.880;2023-05-16T03:24:09;21.17;;;3.17;;
39958;SDS011;25639;53.634;9.880;2023-05-16T03:26:37;15.18;;;3.17;;
39958;SDS011;25639;53.634;9.880;2023-05-16T03:29:02;11.32;;;2.60;;
39958;SDS011;25639;53.634;9.880;2023-05-16T03:31:29;17.92;;;2.45;;
39958;SDS011;25639;53.634;9.880;2023-05-16T03:33:56;16.20;;;2.90;;
39958;SDS011;25639;53.634;9.880;2023-05-16T03:36:22;23.20;;;2.40;;
39958;SDS011;25639;53.634;9.880;2023-05-16T03:38:49;20.85;;;2.58;;
39958;SDS011;25639;53.634;9.880;2023-05-16T03:41:14;19.65;;;3.58;;
39958;SDS011;25639;53.634;9.880;2023-05-16T03:43:43;20.10;;;3.05;;
39958;SDS011;25639;53.634;9.880;2023-05-16T03:46:08;25.70;;;3.08;;
39958;SDS011;25639;53.634;9.880;2023-05-16T03:48:34;20.75;;;3.40;;
39958;SDS011;25639;53.634;9.880;2023-05-16T03:50:59;18.15;;;2.45;;
39958;SDS011;25639;53.634;9.880;2023-05-16T03:53:24;22.52;;;3.08;;
39958;SDS011;25639;53.634;9.880;2023-05-16T03:55:51;25.88;;;2.78;;
39958;SDS011;25639;53.634;9.880;2023-05-16T03:58:20;26.27;;;3.47;;
39958;SDS011;25639;53.634;9.880;2023-05-16T04:00:45;19.13;;;3.10;;
39958;SDS011;25639;53.634;9.880;2023-05-16T04:03:11;19.23;;;2.63;;
39958;SDS011;25639;53.634;9.880;2023-05-16T04:05:37;19.00;;;3.00;;
39958;SDS011;25639;53.634;9.880;2023-05-16T04:08:03;17.38;;;2.92;;
39958;SDS011;25639;53.634;9.880;2023-05-16T04:10:29;14.02;;;2.30;;
39958;SDS011;25639;53.634;9.880;2023-05-16T04:12:55;20.95;;;2.88;;
39958;SDS011;25639;53.634;9.880;2023-05-16T04:15:21;20.83;;;2.85;;
39958;SDS011;25639;53.634;9.880;2023-05-16T04:17:50;19.75;;;2.95;;
39958;SDS011;25639;53.634;9.880;2023-05-16T04:20:15;21.52;;;2.90;;
39958;SDS011;25639;53.634;9.880;2023-05-16T04:22:41;25.77;;;3.10;;
39958;SDS011;25639;53.634;9.880;2023-05-16T04:25:06;19.33;;;2.88;;
39958;SDS011;25639;53.634;9.880;2023-05-16T04:27:33;20.83;;;2.95;;
39958;SDS011;25639;53.634;9.880;2023-05-16T04:30:02;26.45;;;3.20;;
39958;SDS011;25639;53.634;9.880;2023-05-16T04:32:29;19.73;;;2.35;;
39958;SDS011;25639;53.634;9.880;2023-05-16T04:35:00;17.20;;;2.70;;
39958;SDS011;25639;53.634;9.880;2023-05-16T04:37:25;20.92;;;2.45;;
39958;SDS011;25639;53.634;9.880;2023-05-16T04:39:51;17.60;;;2.60;;
39958;SDS011;25639;53.634;9.880;2023-05-16T04:42:19;19.80;;;2.60;;
39958;SDS011;25639;53.634;9.880;2023-05-16T04:44:44;16.38;;;2.08;;
39958;SDS011;25639;53.634;9.880;2023-05-16T04:47:11;16.80;;;2.70;;
39958;SDS011;25639;53.634;9.880;2023-05-16T04:49:37;19.75;;;2.63;;
39958;SDS011;25639;53.634;9.880;2023-05-16T04:52:02;17.52;;;2.33;;
39958;SDS011;25639;53.634;9.880;2023-05-16T04:54:28;15.02;;;2.25;;
39958;SDS011;25639;53.634;9.880;2023-05-16T04:56:53;20.23;;;2.83;;
39958;SDS011;25639;53.634;9.880;2023-05-16T04:59:18;15.02;;;2.50;;
39958;SDS011;25639;53.634;9.880;2023-05-16T05:01:45;17.88;;;2.58;;
39958;SDS011;25639;53.634;9.880;2023-05-16T05:04:11;19.75;;;3.35;;
39958;SDS011;25639;53.634;9.880;2023-05-16T05:06:37;16.42;;;2.30;;
39958;SDS011;25639;53.634;9.880;2023-05-16T05:09:05;16.63;;;1.92;;
39958;SDS011;25639;53.634;9.880;2023-05-16T05:11:31;16.77;;;2.28;;
39958;SDS011;25639;53.634;9.880;2023-05-16T05:13:58;16.75;;;2.13;;
39958;SDS011;25639;53.634;9.880;2023-05-16T05:16:25;14.50;;;3.47;;
39958;SDS011;25639;53.634;9.880;2023-05-16T05:18:50;14.35;;;2.28;;
39958;SDS011;25639;53.634;9.880;2023-05-16T05:21:16;15.90;;;2.05;;
39958;SDS011;25639;53.634;9.880;2023-05-16T05:23:43;10.63;;;2.13;;
39958;SDS011;25639;53.634;9.880;2023-05-16T05:26:08;21.48;;;3.00;;
39958;SDS011;25639;53.634;9.880;2023-05-16T05:28:33;16.90;;;2.08;;
39958;SDS011;25639;53.634;9.880;2023-05-16T05:30:58;20.85;;;2.85;;
39958;SDS011;25639;53.634;9.880;2023-05-16T05:33:27;18.42;;;2.55;;
39958;SDS011;25639;53.634;9.880;2023-05-16T05:35:53;14.88;;;2.17;;
39958;SDS011;25639;53.634;9.880;2023-05-16T05:38:19;16.33;;;1.95;;
39958;SDS011;25639;53.634;9.880;2023-05-16T05:40:46;17.85;;;2.58;;
39958;SDS011;25639;53.634;9.880;2023-05-16T05:43:13;16.55;;;2.13;;
39958;SDS011;25639;53.634;9.880;2023-05-16T05:45:38;14.00;;;1.80;;
39958;SDS011;25639;53.634;9.880;2023-05-16T05:48:03;17.25;;;2.72;;
39958;SDS011;25639;53.634;9.880;2023-05-16T05:50:29;17.25;;;2.60;;
39958;SDS011;25639;53.634;9.880;2023-05-16T05:52:54;16.35;;;2.20;;
39958;SDS011;25639;53.634;9.880;2023-05-16T05:55:20;19.95;;;2.80;;
39958;SDS011;25639;53.634;9.880;2023-05-16T05:57:45;15.02;;;2.35;;
39958;SDS011;25639;53.634;9.880;2023-05-16T06:00:10;15.93;;;2.38;;
39958;SDS011;25639;53.634;9.880;2023-05-16T06:02:36;12.07;;;1.80;;
39958;SDS011;25639;53.634;9.880;2023-05-16T06:05:01;8.75;;;2.08;;
39958;SDS011;25639;53.634;9.880;2023-05-16T06:07:27;21.23;;;2.22;;
39958;SDS011;25639;53.634;9.880;2023-05-16T06:09:52;12.65;;;2.10;;
39958;SDS011;25639;53.634;9.880;2023-05-16T06:12:17;18.00;;;2.10;;
39958;SDS011;25639;53.634;9.880;2023-05-16T06:14:43;17.20;;;2.70;;
39958;SDS011;25639;53.634;9.880;2023-05-16T06:17:08;15.20;;;2.20;;
39958;SDS011;25639;53.634;9.880;2023-05-16T06:19:33;14.90;;;2.33;;
39958;SDS011;25639;53.634;9.880;2023-05-16T06:21:58;17.38;;;2.03;;
39958;SDS011;25639;53.634;9.880;2023-05-16T06:24:24;14.40;;;2.30;;
39958;SDS011;25639;53.634;9.880;2023-05-16T06:26:49;16.77;;;2.20;;
39958;SDS011;25639;53.634;9.880;2023-05-16T06:29:15;14.20;;;2.00;;
39958;SDS011;25639;53.634;9.880;2023-05-16T06:31:41;16.42;;;2.20;;
39958;SDS011;25639;53.634;9.880;2023-05-16T06:34:06;9.68;;;2.15;;
39958;SDS011;25639;53.634;9.880;2023-05-16T06:36:32;12.80;;;2.35;;
39958;SDS011;25639;53.634;9.880;2023-05-16T06:38:57;14.70;;;2.58;;
39958;SDS011;25639;53.634;9.880;2023-05-16T06:41:22;9.45;;;2.05;;
39958;SDS011;25639;53.634;9.880;2023-05-16T06:43:47;16.52;;;2.20;;
39958;SDS011;25639;53.634;9.880;2023-05-16T06:46:13;13.90;;;2.63;;
39958;SDS011;25639;53.634;9.880;2023-05-16T06:48:38;13.68;;;1.95;;
39958;SDS011;25639;53.634;9.880;2023-05-16T06:51:04;14.30;;;1.70;;
39958;SDS011;25639;53.634;9.880;2023-05-16T06:53:29;19.20;;;1.98;;
39958;SDS011;25639;53.634;9.880;2023-05-16T06:55:55;12.30;;;1.77;;
39958;SDS011;25639;53.634;9.880;2023-05-16T06:58:20;11.07;;;1.98;;
39958;SDS011;25639;53.634;9.880;2023-05-16T07:00:47;13.57;;;2.22;;
39958;SDS011;25639;53.634;9.880;2023-05-16T07:03:13;20.50;;;2.45;;
39958;SDS011;25639;53.634;9.880;2023-05-16T07:05:39;16.60;;;2.00;;
39958;SDS011;25639;53.634;9.880;2023-05-16T07:08:05;13.55;;;1.88;;
39958;SDS011;25639;53.634;9.880;2023-05-16T07:10:33;11.15;;;2.15;;
39958;SDS011;25639;53.634;9.880;2023-05-16T07:12:59;12.00;;;1.60;;
39958;SDS011;25639;53.634;9.880;2023-05-16T07:15:25;11.77;;;2.00;;
39958;SDS011;25639;53.634;9.880;2023-05-16T07:17:50;10.07;;;2.28;;
39958;SDS011;25639;53.634;9.880;2023-05-16T07:20:16;11.85;;;1.50;;
39958;SDS011;25639;53.634;9.880;2023-05-16T07:22:41;10.88;;;2.13;;
39958;SDS011;25639;53.634;9.880;2023-05-16T07:25:06;11.65;;;2.00;;
39958;SDS011;25639;53.634;9.880;2023-05-16T07:27:36;13.77;;;1.92;;
39958;SDS011;25639;53.634;9.880;2023-05-16T07:30:02;12.45;;;1.95;;
39958;SDS011;25639;53.634;9.880;2023-05-16T07:32:28;12.23;;;2.20;;
39958;SDS011;25639;53.634;9.880;2023-05-16T07:34:53;10.23;;;1.58;;
39958;SDS011;25639;53.634;9.880;2023-05-16T07:37:18;10.75;;;1.58;;
39958;SDS011;25639;53.634;9.880;2023-05-16T07:39:44;7.40;;;1.40;;
39958;SDS011;25639;53.634;9.880;2023-05-16T07:42:09;6.75;;;1.73;;
39958;SDS011;25639;53.634;9.880;2023-05-16T07:44:35;8.80;;;1.35;;
39958;SDS011;25639;53.634;9.880;2023-05-16T07:47:00;9.10;;;1.60;;
39958;SDS011;25639;53.634;9.880;2023-05-16T07:49:25;10.77;;;1.35;;
39958;SDS011;25639;53.634;9.880;2023-05-16T07:51:51;14.63;;;1.90;;
39958;SDS011;25639;53.634;9.880;2023-05-16T07:54:16;13.95;;;1.70;;
39958;SDS011;25639;53.634;9.880;2023-05-16T07:56:41;7.40;;;1.23;;
39958;SDS011;25639;53.634;9.880;2023-05-16T07:59:07;10.70;;;1.45;;
39958;SDS011;25639;53.634;9.880;2023-05-16T08:01:32;21.95;;;2.15;;
39958;SDS011;25639;53.634;9.880;2023-05-16T08:03:57;6.30;;;1.10;;
39958;SDS011;25639;53.634;9.880;2023-05-16T08:06:23;8.95;;;1.60;;
39958;SDS011;25639;53.634;9.880;2023-05-16T08:08:48;14.25;;;1.58;;
39958;SDS011;25639;53.634;9.880;2023-05-16T08:11:13;12.35;;;1.60;;
39958;SDS011;25639;53.634;9.880;2023-05-16T08:13:39;23.15;;;1.98;;
39958;SDS011;25639;53.634;9.880;2023-05-16T08:16:04;8.60;;;1.58;;
39958;SDS011;25639;53.634;9.880;2023-05-16T08:18:29;11.02;;;2.00;;
39958;SDS011;25639;53.634;9.880;2023-05-16T08:20:55;14.20;;;2.67;;
39958;SDS011;25639;53.634;9.880;2023-05-16T08:23:20;14.32;;;1.75;;
39958;SDS011;25639;53.634;9.880;2023-05-16T08:25:45;16.13;;;1.70;;
39958;SDS011;25639;53.634;9.880;2023-05-16T08:28:10;11.55;;;1.73;;
39958;SDS011;25639;53.634;9.880;2023-05-16T08:30:36;12.38;;;1.63;;
39958;SDS011;25639;53.634;9.880;2023-05-16T08:33:01;9.15;;;1.67;;
39958;SDS011;25639;53.634;9.880;2023-05-16T08:35:29;9.88;;;1.40;;
39958;SDS011;25639;53.634;9.880;2023-05-16T08:37:54;8.15;;;1.63;;
39958;SDS011;25639;53.634;9.880;2023-05-16T08:40:20;6.78;;;1.33;;
39958;SDS011;25639;53.634;9.880;2023-05-16T08:42:50;6.68;;;1.27;;
39958;SDS011;25639;53.634;9.880;2023-05-16T08:45:15;7.85;;;1.30;;
39958;SDS011;25639;53.634;9.880;2023-05-16T08:47:41;8.95;;;1.52;;
39958;SDS011;25639;53.634;9.880;2023-05-16T08:50:08;12.48;;;1.55;;
39958;SDS011;25639;53.634;9.880;2023-05-16T08:52:34;12.52;;;1.38;;
39958;SDS011;25639;53.634;9.880;2023-05-16T08:55:02;12.88;;;1.25;;
39958;SDS011;25639;53.634;9.880;2023-05-16T08:57:35;7.18;;;1.55;;
39958;SDS011;25639;53.634;9.880;2023-05-16T09:00:01;11.40;;;2.00;;
39958;SDS011;25639;53.634;9.880;2023-05-16T09:02:31;14.20;;;1.65;;
39958;SDS011;25639;53.634;9.880;2023-05-16T09:04:57;10.20;;;1.67;;
39958;SDS011;25639;53.634;9.880;2023-05-16T09:07:23;12.13;;;1.67;;
39958;SDS011;25639;53.634;9.880;2023-05-16T09:09:48;18.65;;;1.92;;
39958;SDS011;25639;53.634;9.880;2023-05-16T09:12:14;11.55;;;1.80;;
39958;SDS011;25639;53.634;9.880;2023-05-16T09:14:39;7.88;;;1.65;;
39958;SDS011;25639;53.634;9.880;2023-05-16T09:17:06;12.70;;;2.10;;
39958;SDS011;25639;53.634;9.880;2023-05-16T09:19:36;11.35;;;1.85;;
39958;SDS011;25639;53.634;9.880;2023-05-16T09:22:03;9.55;;;1.45;;
39958;SDS011;25639;53.634;9.880;2023-05-16T09:24:28;10.05;;;1.60;;
39958;SDS011;25639;53.634;9.880;2023-05-16T09:26:54;14.43;;;2.28;;
39958;SDS011;25639;53.634;9.880;2023-05-16T09:29:19;8.43;;;1.52;;
39958;SDS011;25639;53.634;9.880;2023-05-16T09:31:47;16.98;;;1.88;;
39958;SDS011;25639;53.634;9.880;2023-05-16T09:34:13;9.00;;;1.80;;
39958;SDS011;25639;53.634;9.880;2023-05-16T09:36:38;6.63;;;1.13;;
39958;SDS011;25639;53.634;9.880;2023-05-16T09:39:05;9.93;;;1.60;;
39958;SDS011;25639;53.634;9.880;2023-05-16T09:41:34;11.13;;;2.03;;
39958;SDS011;25639;53.634;9.880;2023-05-16T09:44:02;12.75;;;1.20;;
39958;SDS011;25639;53.634;9.880;2023-05-16T09:46:29;9.57;;;1.80;;
39958;SDS011;25639;53.634;9.880;2023-05-16T09:48:55;11.15;;;1.98;;
39958;SDS011;25639;53.634;9.880;2023-05-16T09:51:21;17.48;;;2.17;;
39958;SDS011;25639;53.634;9.880;2023-05-16T09:53:46;10.77;;;2.15;;
39958;SDS011;25639;53.634;9.880;2023-05-16T09:56:12;9.27;;;1.95;;
39958;SDS011;25639;53.634;9.880;2023-05-16T09:58:39;9.38;;;1.83;;
39958;SDS011;25639;53.634;9.880;2023-05-16T10:01:06;9.60;;;1.70;;
39958;SDS011;25639;53.634;9.880;2023-05-16T10:03:36;11.13;;;1.63;;
39958;SDS011;25639;53.634;9.880;2023-05-16T10:06:06;10.05;;;1.98;;
39958;SDS011;25639;53.634;9.880;2023-05-16T10:08:32;10.25;;;2.00;;
39958;SDS011;25639;53.634;9.880;2023-05-16T10:11:00;13.88;;;1.85;;
39958;SDS011;25639;53.634;9.880;2023-05-16T10:13:28;11.18;;;1.85;;
39958;SDS011;25639;53.634;9.880;2023-05-16T10:15:55;16.80;;;2.35;;
39958;SDS011;25639;53.634;9.880;2023-05-16T10:18:22;14.55;;;2.15;;
39958;SDS011;25639;53.634;9.880;2023-05-16T10:20:54;14.68;;;2.00;;
39958;SDS011;25639;53.634;9.880;2023-05-16T10:23:22;13.23;;;2.05;;
39958;SDS011;25639;53.634;9.880;2023-05-16T10:25:49;10.68;;;2.08;;
39958;SDS011;25639;53.634;9.880;2023-05-16T10:28:16;13.63;;;1.95;;
39958;SDS011;25639;53.634;9.880;2023-05-16T10:30:45;11.05;;;1.95;;
39958;SDS011;25639;53.634;9.880;2023-05-16T10:33:15;9.63;;;2.13;;
39958;SDS011;25639;53.634;9.880;2023-05-16T10:35:41;22.08;;;2.67;;
39958;SDS011;25639;53.634;9.880;2023-05-16T10:38:08;7.03;;;1.80;;
39958;SDS011;25639;53.634;9.880;2023-05-16T10:40:36;10.27;;;1.90;;
39958;SDS011;25639;53.634;9.880;2023-05-16T10:43:02;18.85;;;1.77;;
39958;SDS011;25639;53.634;9.880;2023-05-16T10:45:30;13.07;;;2.25;;
39958;SDS011;25639;53.634;9.880;2023-05-16T10:47:56;10.27;;;1.90;;
39958;SDS011;25639;53.634;9.880;2023-05-16T10:50:32;12.18;;;1.75;;
39958;SDS011;25639;53.634;9.880;2023-05-16T10:53:10;11.73;;;1.95;;
39958;SDS011;25639;53.634;9.880;2023-05-16T10:55:48;27.77;;;2.47;;
39958;SDS011;25639;53.634;9.880;2023-05-16T11:04:00;12.40;;;1.65;;
39958;SDS011;25639;53.634;9.880;2023-05-16T11:14:57;3.30;;;1.25;;
39958;SDS011;25639;53.634;9.880;2023-05-16T11:19:50;6.38;;;1.30;;
39958;SDS011;25639;53.634;9.880;2023-05-16T11:27:24;8.30;;;0.85;;
39958;SDS011;25639;53.634;9.880;2023-05-16T11:29:51;2.83;;;1.02;;
39958;SDS011;25639;53.634;9.880;2023-05-16T11:32:20;8.45;;;1.80;;
39958;SDS011;25639;53.634;9.880;2023-05-16T11:34:47;11.05;;;1.63;;
39958;SDS011;25639;53.634;9.880;2023-05-16T11:37:13;4.25;;;1.02;;
39958;SDS011;25639;53.634;9.880;2023-05-16T11:39:39;5.22;;;1.20;;
39958;SDS011;25639;53.634;9.880;2023-05-16T11:42:05;10.80;;;1.63;;
39958;SDS011;25639;53.634;9.880;2023-05-16T11:44:30;7.88;;;0.80;;
39958;SDS011;25639;53.634;9.880;2023-05-16T11:46:55;8.70;;;1.02;;
39958;SDS011;25639;53.634;9.880;2023-05-16T11:49:21;7.30;;;1.40;;
39958;SDS011;25639;53.634;9.880;2023-05-16T11:51:46;10.40;;;1.65;;
39958;SDS011;25639;53.634;9.880;2023-05-16T11:54:13;13.93;;;1.80;;
39958;SDS011;25639;53.634;9.880;2023-05-16T11:56:39;6.75;;;1.40;;
39958;SDS011;25639;53.634;9.880;2023-05-16T11:59:05;18.20;;;1.98;;
39958;SDS011;25639;53.634;9.880;2023-05-16T12:01:34;21.10;;;1.83;;
39958;SDS011;25639;53.634;9.880;2023-05-16T12:04:13;9.02;;;1.95;;
39958;SDS011;25639;53.634;9.880;2023-05-16T12:06:40;6.57;;;1.10;;
39958;SDS011;25639;53.634;9.880;2023-05-16T12:09:12;15.00;;;1.30;;
39958;SDS011;25639;53.634;9.880;2023-05-16T12:11:39;7.78;;;1.17;;
39958;SDS011;25639;53.634;9.880;2023-05-16T12:14:06;7.78;;;1.70;;
39958;SDS011;25639;53.634;9.880;2023-05-16T12:16:33;7.55;;;1.25;;
39958;SDS011;25639;53.634;9.880;2023-05-16T12:19:00;3.85;;;1.08;;
39958;SDS011;25639;53.634;9.880;2023-05-16T12:21:26;11.57;;;1.20;;
39958;SDS011;25639;53.634;9.880;2023-05-16T12:23:55;5.30;;;1.02;;
39958;SDS011;25639;53.634;9.880;2023-05-16T12:26:26;8.45;;;1.40;;
39958;SDS011;25639;53.634;9.880;2023-05-16T12:29:00;4.75;;;1.30;;
39958;SDS011;25639;53.634;9.880;2023-05-16T12:31:29;8.85;;;1.20;;
39958;SDS011;25639;53.634;9.880;2023-05-16T12:33:55;7.15;;;1.55;;
39958;SDS011;25639;53.634;9.880;2023-05-16T12:36:22;13.82;;;1.40;;
39958;SDS011;25639;53.634;9.880;2023-05-16T12:38:48;13.45;;;1.77;;
39958;SDS011;25639;53.634;9.880;2023-05-16T12:41:19;9.43;;;1.63;;
39958;SDS011;25639;53.634;9.880;2023-05-16T12:43:45;16.20;;;2.42;;
39958;SDS011;25639;53.634;9.880;2023-05-16T12:46:11;14.48;;;2.17;;
39958;SDS011;25639;53.634;9.880;2023-05-16T12:48:36;8.55;;;1.77;;
39958;SDS011;25639;53.634;9.880;2023-05-16T12:51:10;12.23;;;2.40;;
39958;SDS011;25639;53.634;9.880;2023-05-16T12:56:10;25.48;;;2.55;;
39958;SDS011;25639;53.634;9.880;2023-05-16T12:58:36;7.93;;;1.33;;
39958;SDS011;25639;53.634;9.880;2023-05-16T13:01:02;6.68;;;1.40;;
39958;SDS011;25639;53.634;9.880;2023-05-16T13:03:28;8.20;;;1.70;;
39958;SDS011;25639;53.634;9.880;2023-05-16T13:05:54;8.40;;;1.30;;
39958;SDS011;25639;53.634;9.880;2023-05-16T13:08:19;8.82;;;1.05;;
39958;SDS011;25639;53.634;9.880;2023-05-16T13:10:45;8.10;;;1.33;;
39958;SDS011;25639;53.634;9.880;2023-05-16T13:13:10;8.85;;;1.60;;
39958;SDS011;25639;53.634;9.880;2023-05-16T13:15:35;3.75;;;1.00;;
39958;SDS011;25639;53.634;9.880;2023-05-16T13:18:02;5.28;;;1.20;;
39958;SDS011;25639;53.634;9.880;2023-05-16T13:20:27;10.27;;;1.58;;
39958;SDS011;25639;53.634;9.880;2023-05-16T13:22:53;11.60;;;1.70;;
39958;SDS011;25639;53.634;9.880;2023-05-16T13:25:19;11.82;;;1.50;;
39958;SDS011;25639;53.634;9.880;2023-05-16T13:27:45;9.48;;;1.63;;
39958;SDS011;25639;53.634;9.880;2023-05-16T13:30:10;12.85;;;1.75;;
39958;SDS011;25639;53.634;9.880;2023-05-16T13:32:35;9.15;;;1.52;;
39958;SDS011;25639;53.634;9.880;2023-05-16T13:35:01;7.10;;;1.90;;
39958;SDS011;25639;53.634;9.880;2023-05-16T13:37:28;7.28;;;1.73;;
39958;SDS011;25639;53.634;9.880;2023-05-16T13:39:53;6.50;;;0.98;;
39958;SDS011;25639;53.634;9.880;2023-05-16T13:42:19;6.80;;;1.00;;
39958;SDS011;25639;53.634;9.880;2023-05-16T13:44:45;5.00;;;0.98;;
39958;SDS011;25639;53.634;9.880;2023-05-16T13:47:10;3.40;;;0.93;;
39958;SDS011;25639;53.634;9.880;2023-05-16T13:49:35;5.30;;;1.27;;
39958;SDS011;25639;53.634;9.880;2023-05-16T13:52:01;9.98;;;1.20;;
39958;SDS011;25639;53.634;9.880;2023-05-16T13:54:27;5.25;;;1.00;;
39958;SDS011;25639;53.634;9.880;2023-05-16T13:56:52;8.55;;;1.23;;
39958;SDS011;25639;53.634;9.880;2023-05-16T13:59:18;7.20;;;1.10;;
39958;SDS011;25639;53.634;9.880;2023-05-16T14:01:43;6.13;;;1.40;;
39958;SDS011;25639;53.634;9.880;2023-05-16T14:04:09;8.85;;;1.40;;
39958;SDS011;25639;53.634;9.880;2023-05-16T14:06:34;7.93;;;1.23;;
39958;SDS011;25639;53.634;9.880;2023-05-16T14:08:59;8.02;;;1.40;;
39958;SDS011;25639;53.634;9.880;2023-05-16T14:11:25;4.80;;;1.10;;
39958;SDS011;25639;53.634;9.880;2023-05-16T14:13:54;6.28;;;1.50;;
39958;SDS011;25639;53.634;9.880;2023-05-16T14:16:20;12.05;;;1.60;;
39958;SDS011;25639;53.634;9.880;2023-05-16T14:18:46;4.68;;;1.20;;
39958;SDS011;25639;53.634;9.880;2023-05-16T14:21:11;8.63;;;1.30;;
39958;SDS011;25639;53.634;9.880;2023-05-16T14:23:37;7.40;;;1.23;;
39958;SDS011;25639;53.634;9.880;2023-05-16T14:26:03;5.20;;;1.13;;
39958;SDS011;25639;53.634;9.880;2023-05-16T14:28:28;5.78;;;0.98;;
39958;SDS011;25639;53.634;9.880;2023-05-16T14:30:54;5.43;;;1.10;;
39958;SDS011;25639;53.634;9.880;2023-05-16T14:33:20;7.90;;;1.17;;
39958;SDS011;25639;53.634;9.880;2023-05-16T14:35:45;7.45;;;1.17;;
39958;SDS011;25639;53.634;9.880;2023-05-16T14:38:14;9.55;;;1.27;;
39958;SDS011;25639;53.634;9.880;2023-05-16T14:40:40;9.20;;;1.25;;
39958;SDS011;25639;53.634;9.880;2023-05-16T14:43:05;6.15;;;0.95;;
39958;SDS011;25639;53.634;9.880;2023-05-16T14:45:30;4.25;;;0.90;;
39958;SDS011;25639;53.634;9.880;2023-05-16T14:47:55;7.45;;;0.80;;
39958;SDS011;25639;53.634;9.880;2023-05-16T14:50:21;5.28;;;1.48;;
39958;SDS011;25639;53.634;9.880;2023-05-16T14:52:46;7.72;;;1.30;;
39958;SDS011;25639;53.634;9.880;2023-05-16T14:55:11;8.20;;;1.40;;
39958;SDS011;25639;53.634;9.880;2023-05-16T14:57:37;6.25;;;1.33;;
39958;SDS011;25639;53.634;9.880;2023-05-16T15:00:02;11.32;;;1.85;;
39958;SDS011;25639;53.634;9.880;2023-05-16T15:02:29;16.27;;;1.73;;
39958;SDS011;25639;53.634;9.880;2023-05-16T15:04:54;6.38;;;1.42;;
39958;SDS011;25639;53.634;9.880;2023-05-16T15:07:20;9.65;;;2.03;;
39958;SDS011;25639;53.634;9.880;2023-05-16T15:09:46;10.85;;;1.70;;
39958;SDS011;25639;53.634;9.880;2023-05-16T15:12:11;16.92;;;2.05;;
39958;SDS011;25639;53.634;9.880;2023-05-16T15:14:36;11.02;;;1.80;;